sensor_id;sensor_type;location;lat;lon;timestamp;P1;durP1;ratioP1;P2;durP2;ratioP2
9720;SDS011;4899;42.644;23.366;2023-02-01T00:01:32;4.67;;;3.93;;
9720;SDS011;4899;42.644;23.366;2023-02-01T00:03:57;4.43;;;4.03;;
9720;SDS011;4899;42.644;23.366;2023-02-01T00:06:23;4.23;;;3.87;;
9720;SDS011;4899;42.644;23.366;2023-02-01T00:08:51;4.57;;;4.20;;
9720;SDS011;4899;42.644;23.366;2023-02-01T00:11:18;5.30;;;4.40;;
9720;SDS011;4899;42.644;23.366;2023-02-01T00:13:43;3.80;;;3.50;;
9720;SDS011;4899;42.644;23.366;2023-02-01T00:16:10;5.30;;;4.43;;
9720;SDS011;4899;42.644;23.366;2023-02-01T00:18:39;4.17;;;3.77;;
9720;SDS011;4899;42.644;23.366;2023-02-01T00:21:04;4.47;;;3.27;;
9720;SDS011;4899;42.644;23.366;2023-02-01T00:23:34;4.03;;;3.63;;
9720;SDS011;4899;42.644;23.366;2023-02-01T00:26:01;6.10;;;4.13;;
9720;SDS011;4899;42.644;23.366;2023-02-01T00:28:28;4.40;;;4.10;;
9720;SDS011;4899;42.644;23.366;2023-02-01T00:31:00;4.50;;;4.10;;
9720;SDS011;4899;42.644;23.366;2023-02-01T00:33:28;4.13;;;3.37;;
9720;SDS011;4899;42.644;23.366;2023-02-01T00:36:04;4.10;;;3.77;;
9720;SDS011;4899;42.644;23.366;2023-02-01T00:38:32;6.17;;;4.03;;
9720;SDS011;4899;42.644;23.366;2023-02-01T00:41:06;5.63;;;4.23;;
9720;SDS011;4899;42.644;23.366;2023-02-01T00:43:35;4.67;;;4.17;;
9720;SDS011;4899;42.644;23.366;2023-02-01T00:46:00;5.20;;;3.90;;
9720;SDS011;4899;42.644;23.366;2023-02-01T00:48:26;4.43;;;3.63;;
9720;SDS011;4899;42.644;23.366;2023-02-01T00:50:52;4.00;;;3.70;;
9720;SDS011;4899;42.644;23.366;2023-02-01T00:53:18;4.60;;;3.43;;
9720;SDS011;4899;42.644;23.366;2023-02-01T00:55:47;3.93;;;3.60;;
9720;SDS011;4899;42.644;23.366;2023-02-01T00:58:13;3.63;;;3.33;;
9720;SDS011;4899;42.644;23.366;2023-02-01T01:00:39;3.73;;;2.70;;
9720;SDS011;4899;42.644;23.366;2023-02-01T01:03:05;4.73;;;2.73;;
9720;SDS011;4899;42.644;23.366;2023-02-01T01:05:51;3.27;;;2.97;;
9720;SDS011;4899;42.644;23.366;2023-02-01T01:08:22;3.50;;;3.20;;
9720;SDS011;4899;42.644;23.366;2023-02-01T01:10:48;3.00;;;2.67;;
9720;SDS011;4899;42.644;23.366;2023-02-01T01:13:14;3.93;;;3.47;;
9720;SDS011;4899;42.644;23.366;2023-02-01T01:15:41;2.70;;;2.33;;
9720;SDS011;4899;42.644;23.366;2023-02-01T01:18:06;2.93;;;2.60;;
9720;SDS011;4899;42.644;23.366;2023-02-01T01:20:36;2.80;;;2.53;;
9720;SDS011;4899;42.644;23.366;2023-02-01T01:23:05;4.33;;;2.73;;
9720;SDS011;4899;42.644;23.366;2023-02-01T01:25:32;2.90;;;2.60;;
9720;SDS011;4899;42.644;23.366;2023-02-01T01:28:01;2.90;;;2.70;;
9720;SDS011;4899;42.644;23.366;2023-02-01T01:30:27;2.60;;;2.50;;
9720;SDS011;4899;42.644;23.366;2023-02-01T01:32:52;3.07;;;2.77;;
9720;SDS011;4899;42.644;23.366;2023-02-01T01:35:18;2.10;;;2.00;;
9720;SDS011;4899;42.644;23.366;2023-02-01T01:37:43;4.73;;;2.90;;
9720;SDS011;4899;42.644;23.366;2023-02-01T01:40:09;3.87;;;2.53;;
9720;SDS011;4899;42.644;23.366;2023-02-01T01:42:38;2.47;;;2.27;;
9720;SDS011;4899;42.644;23.366;2023-02-01T01:45:23;2.67;;;2.23;;
9720;SDS011;4899;42.644;23.366;2023-02-01T01:47:52;3.43;;;2.00;;
9720;SDS011;4899;42.644;23.366;2023-02-01T01:50:25;4.50;;;2.23;;
9720;SDS011;4899;42.644;23.366;2023-02-01T01:53:13;3.93;;;2.33;;
9720;SDS011;4899;42.644;23.366;2023-02-01T01:55:43;3.43;;;2.97;;
9720;SDS011;4899;42.644;23.366;2023-02-01T01:58:14;2.80;;;2.50;;
9720;SDS011;4899;42.644;23.366;2023-02-01T02:00:42;3.17;;;2.80;;
9720;SDS011;4899;42.644;23.366;2023-02-01T02:03:17;2.60;;;2.40;;
9720;SDS011;4899;42.644;23.366;2023-02-01T02:05:47;3.47;;;2.63;;
9720;SDS011;4899;42.644;23.366;2023-02-01T02:08:15;2.33;;;2.13;;
9720;SDS011;4899;42.644;23.366;2023-02-01T02:10:42;2.87;;;2.53;;
9720;SDS011;4899;42.644;23.366;2023-02-01T02:13:27;2.83;;;2.63;;
9720;SDS011;4899;42.644;23.366;2023-02-01T02:18:49;3.13;;;2.83;;
9720;SDS011;4899;42.644;23.366;2023-02-01T02:26:58;2.70;;;2.50;;
9720;SDS011;4899;42.644;23.366;2023-02-01T02:43:10;3.20;;;2.40;;
9720;SDS011;4899;42.644;23.366;2023-02-01T02:49:11;2.30;;;2.10;;
9720;SDS011;4899;42.644;23.366;2023-02-01T02:51:48;2.67;;;2.47;;
9720;SDS011;4899;42.644;23.366;2023-02-01T02:54:40;4.03;;;1.83;;
9720;SDS011;4899;42.644;23.366;2023-02-01T02:57:13;3.53;;;2.13;;
9720;SDS011;4899;42.644;23.366;2023-02-01T03:00:06;1.80;;;1.70;;
9720;SDS011;4899;42.644;23.366;2023-02-01T03:02:53;2.10;;;1.90;;
9720;SDS011;4899;42.644;23.366;2023-02-01T03:05:43;2.00;;;1.90;;
9720;SDS011;4899;42.644;23.366;2023-02-01T03:08:11;2.20;;;1.63;;
9720;SDS011;4899;42.644;23.366;2023-02-01T03:16:04;2.07;;;1.77;;
9720;SDS011;4899;42.644;23.366;2023-02-01T03:21:02;2.27;;;1.60;;
9720;SDS011;4899;42.644;23.366;2023-02-01T03:23:33;1.97;;;1.77;;
9720;SDS011;4899;42.644;23.366;2023-02-01T03:26:02;1.70;;;1.60;;
9720;SDS011;4899;42.644;23.366;2023-02-01T03:28:31;3.97;;;1.93;;
9720;SDS011;4899;42.644;23.366;2023-02-01T03:30:59;1.97;;;1.57;;
9720;SDS011;4899;42.644;23.366;2023-02-01T03:33:26;2.53;;;1.93;;
9720;SDS011;4899;42.644;23.366;2023-02-01T03:41:53;3.13;;;1.70;;
9720;SDS011;4899;42.644;23.366;2023-02-01T03:47:06;3.57;;;2.00;;
9720;SDS011;4899;42.644;23.366;2023-02-01T03:49:37;3.37;;;2.27;;
9720;SDS011;4899;42.644;23.366;2023-02-01T03:52:09;2.97;;;1.47;;
9720;SDS011;4899;42.644;23.366;2023-02-01T03:54:38;1.90;;;1.60;;
9720;SDS011;4899;42.644;23.366;2023-02-01T03:57:07;3.20;;;1.87;;
9720;SDS011;4899;42.644;23.366;2023-02-01T03:59:40;1.50;;;1.40;;
9720;SDS011;4899;42.644;23.366;2023-02-01T04:02:06;1.87;;;1.73;;
9720;SDS011;4899;42.644;23.366;2023-02-01T04:04:33;1.70;;;1.60;;
9720;SDS011;4899;42.644;23.366;2023-02-01T04:07:00;1.67;;;1.57;;
9720;SDS011;4899;42.644;23.366;2023-02-01T04:09:25;2.00;;;1.57;;
9720;SDS011;4899;42.644;23.366;2023-02-01T04:11:51;1.73;;;1.60;;
9720;SDS011;4899;42.644;23.366;2023-02-01T04:14:17;1.67;;;1.57;;
9720;SDS011;4899;42.644;23.366;2023-02-01T04:16:42;4.27;;;1.90;;
9720;SDS011;4899;42.644;23.366;2023-02-01T04:19:07;2.30;;;1.77;;
9720;SDS011;4899;42.644;23.366;2023-02-01T04:21:33;1.67;;;1.53;;
9720;SDS011;4899;42.644;23.366;2023-02-01T04:23:58;1.90;;;1.80;;
9720;SDS011;4899;42.644;23.366;2023-02-01T04:26:24;3.17;;;1.93;;
9720;SDS011;4899;42.644;23.366;2023-02-01T04:28:50;1.90;;;1.57;;
9720;SDS011;4899;42.644;23.366;2023-02-01T04:31:16;2.97;;;1.50;;
9720;SDS011;4899;42.644;23.366;2023-02-01T04:33:42;2.77;;;1.90;;
9720;SDS011;4899;42.644;23.366;2023-02-01T04:36:09;2.27;;;2.10;;
9720;SDS011;4899;42.644;23.366;2023-02-01T04:38:34;2.47;;;2.27;;
9720;SDS011;4899;42.644;23.366;2023-02-01T04:41:00;2.80;;;2.37;;
9720;SDS011;4899;42.644;23.366;2023-02-01T04:43:26;3.53;;;2.63;;
9720;SDS011;4899;42.644;23.366;2023-02-01T04:45:52;2.70;;;2.50;;
9720;SDS011;4899;42.644;23.366;2023-02-01T04:48:19;3.40;;;2.70;;
9720;SDS011;4899;42.644;23.366;2023-02-01T04:50:46;3.63;;;2.67;;
9720;SDS011;4899;42.644;23.366;2023-02-01T04:53:16;3.37;;;2.40;;
9720;SDS011;4899;42.644;23.366;2023-02-01T04:55:42;2.83;;;2.50;;
9720;SDS011;4899;42.644;23.366;2023-02-01T04:58:09;3.03;;;2.77;;
9720;SDS011;4899;42.644;23.366;2023-02-01T05:00:35;2.63;;;2.27;;
9720;SDS011;4899;42.644;23.366;2023-02-01T05:03:01;3.53;;;2.80;;
9720;SDS011;4899;42.644;23.366;2023-02-01T05:05:27;3.17;;;2.57;;
9720;SDS011;4899;42.644;23.366;2023-02-01T05:07:53;4.50;;;3.43;;
9720;SDS011;4899;42.644;23.366;2023-02-01T05:10:19;6.53;;;3.40;;
9720;SDS011;4899;42.644;23.366;2023-02-01T05:12:45;4.50;;;2.93;;
9720;SDS011;4899;42.644;23.366;2023-02-01T05:15:29;3.20;;;2.83;;
9720;SDS011;4899;42.644;23.366;2023-02-01T05:17:55;5.17;;;3.00;;
9720;SDS011;4899;42.644;23.366;2023-02-01T05:20:21;3.20;;;2.90;;
9720;SDS011;4899;42.644;23.366;2023-02-01T05:22:47;4.30;;;3.00;;
9720;SDS011;4899;42.644;23.366;2023-02-01T05:25:13;3.20;;;2.87;;
9720;SDS011;4899;42.644;23.366;2023-02-01T05:27:39;3.50;;;2.70;;
9720;SDS011;4899;42.644;23.366;2023-02-01T05:30:05;4.10;;;3.10;;
9720;SDS011;4899;42.644;23.366;2023-02-01T05:32:31;5.17;;;2.93;;
9720;SDS011;4899;42.644;23.366;2023-02-01T05:34:57;2.97;;;2.77;;
9720;SDS011;4899;42.644;23.366;2023-02-01T05:37:22;4.23;;;2.97;;
9720;SDS011;4899;42.644;23.366;2023-02-01T05:39:48;3.57;;;3.27;;
9720;SDS011;4899;42.644;23.366;2023-02-01T05:42:13;4.50;;;2.83;;
9720;SDS011;4899;42.644;23.366;2023-02-01T05:44:39;5.60;;;3.20;;
9720;SDS011;4899;42.644;23.366;2023-02-01T05:47:29;3.60;;;3.30;;
9720;SDS011;4899;42.644;23.366;2023-02-01T05:50:19;4.37;;;3.10;;
9720;SDS011;4899;42.644;23.366;2023-02-01T05:53:10;4.63;;;3.37;;
9720;SDS011;4899;42.644;23.366;2023-02-01T05:56:01;4.87;;;3.03;;
9720;SDS011;4899;42.644;23.366;2023-02-01T05:58:51;4.23;;;3.10;;
9720;SDS011;4899;42.644;23.366;2023-02-01T06:01:42;3.23;;;2.97;;
9720;SDS011;4899;42.644;23.366;2023-02-01T06:04:33;3.67;;;3.13;;
9720;SDS011;4899;42.644;23.366;2023-02-01T06:07:24;4.10;;;2.73;;
9720;SDS011;4899;42.644;23.366;2023-02-01T06:10:19;6.50;;;2.80;;
9720;SDS011;4899;42.644;23.366;2023-02-01T06:13:09;4.77;;;2.57;;
9720;SDS011;4899;42.644;23.366;2023-02-01T06:16:01;4.17;;;2.60;;
9720;SDS011;4899;42.644;23.366;2023-02-01T06:18:52;6.50;;;3.00;;
9720;SDS011;4899;42.644;23.366;2023-02-01T06:21:43;4.53;;;2.50;;
9720;SDS011;4899;42.644;23.366;2023-02-01T18:26:49;2.28;;;1.35;;
9720;SDS011;4899;42.644;23.366;2023-02-01T18:29:16;2.17;;;1.50;;
9720;SDS011;4899;42.644;23.366;2023-02-01T18:31:45;4.27;;;1.70;;
9720;SDS011;4899;42.644;23.366;2023-02-01T18:34:13;1.97;;;1.60;;
9720;SDS011;4899;42.644;23.366;2023-02-01T18:36:45;3.93;;;1.80;;
9720;SDS011;4899;42.644;23.366;2023-02-01T18:39:10;3.33;;;2.23;;
9720;SDS011;4899;42.644;23.366;2023-02-01T18:41:36;3.40;;;3.07;;
9720;SDS011;4899;42.644;23.366;2023-02-01T18:44:01;3.77;;;2.30;;
9720;SDS011;4899;42.644;23.366;2023-02-01T18:46:28;2.03;;;1.90;;
9720;SDS011;4899;42.644;23.366;2023-02-01T18:48:54;6.57;;;2.13;;
9720;SDS011;4899;42.644;23.366;2023-02-01T18:51:19;3.83;;;2.57;;
9720;SDS011;4899;42.644;23.366;2023-02-01T18:53:46;10.10;;;7.13;;
9720;SDS011;4899;42.644;23.366;2023-02-01T18:56:12;15.00;;;9.60;;
9720;SDS011;4899;42.644;23.366;2023-02-01T18:58:38;11.23;;;8.33;;
9720;SDS011;4899;42.644;23.366;2023-02-01T19:01:06;9.83;;;7.50;;
9720;SDS011;4899;42.644;23.366;2023-02-01T19:03:33;21.23;;;13.97;;
9720;SDS011;4899;42.644;23.366;2023-02-01T19:06:00;20.83;;;14.20;;
9720;SDS011;4899;42.644;23.366;2023-02-01T19:08:25;23.30;;;14.40;;
9720;SDS011;4899;42.644;23.366;2023-02-01T19:10:51;23.13;;;14.20;;
9720;SDS011;4899;42.644;23.366;2023-02-01T19:13:17;7.00;;;4.23;;
9720;SDS011;4899;42.644;23.366;2023-02-01T19:15:44;11.60;;;7.40;;
9720;SDS011;4899;42.644;23.366;2023-02-01T19:18:10;16.10;;;9.73;;
9720;SDS011;4899;42.644;23.366;2023-02-01T19:20:36;17.17;;;11.60;;
9720;SDS011;4899;42.644;23.366;2023-02-01T19:23:10;9.27;;;6.03;;
9720;SDS011;4899;42.644;23.366;2023-02-01T19:25:36;6.77;;;4.17;;
9720;SDS011;4899;42.644;23.366;2023-02-01T19:28:01;9.93;;;7.00;;
9720;SDS011;4899;42.644;23.366;2023-02-01T19:30:27;14.20;;;9.23;;
9720;SDS011;4899;42.644;23.366;2023-02-01T19:32:52;14.20;;;7.70;;
9720;SDS011;4899;42.644;23.366;2023-02-01T19:35:19;10.93;;;8.63;;
9720;SDS011;4899;42.644;23.366;2023-02-01T19:37:47;13.10;;;9.37;;
9720;SDS011;4899;42.644;23.366;2023-02-01T19:40:17;13.33;;;9.47;;
9720;SDS011;4899;42.644;23.366;2023-02-01T19:42:44;13.30;;;8.87;;
9720;SDS011;4899;42.644;23.366;2023-02-01T19:45:11;16.20;;;8.40;;
9720;SDS011;4899;42.644;23.366;2023-02-01T19:47:37;12.47;;;9.10;;
9720;SDS011;4899;42.644;23.366;2023-02-01T19:50:02;11.17;;;9.27;;
9720;SDS011;4899;42.644;23.366;2023-02-01T19:52:33;10.83;;;7.97;;
9720;SDS011;4899;42.644;23.366;2023-02-01T19:54:59;10.90;;;8.10;;
9720;SDS011;4899;42.644;23.366;2023-02-01T19:57:25;14.13;;;7.97;;
9720;SDS011;4899;42.644;23.366;2023-02-01T19:59:52;10.80;;;8.23;;
9720;SDS011;4899;42.644;23.366;2023-02-01T20:02:18;12.50;;;7.80;;
9720;SDS011;4899;42.644;23.366;2023-02-01T20:04:43;9.10;;;7.77;;
9720;SDS011;4899;42.644;23.366;2023-02-01T20:07:09;11.07;;;7.93;;
9720;SDS011;4899;42.644;23.366;2023-02-01T20:09:36;8.23;;;7.00;;
9720;SDS011;4899;42.644;23.366;2023-02-01T20:12:02;10.90;;;7.47;;
9720;SDS011;4899;42.644;23.366;2023-02-01T20:14:28;12.53;;;8.00;;
9720;SDS011;4899;42.644;23.366;2023-02-01T20:16:54;12.67;;;8.27;;
9720;SDS011;4899;42.644;23.366;2023-02-01T20:19:21;10.90;;;7.87;;
9720;SDS011;4899;42.644;23.366;2023-02-01T20:21:46;10.20;;;8.13;;
9720;SDS011;4899;42.644;23.366;2023-02-01T20:24:13;13.13;;;8.00;;
9720;SDS011;4899;42.644;23.366;2023-02-01T20:26:40;14.37;;;9.83;;
9720;SDS011;4899;42.644;23.366;2023-02-01T20:29:07;12.37;;;8.83;;
9720;SDS011;4899;42.644;23.366;2023-02-01T20:31:32;12.03;;;9.80;;
9720;SDS011;4899;42.644;23.366;2023-02-01T20:33:59;12.07;;;9.20;;
9720;SDS011;4899;42.644;23.366;2023-02-01T20:36:25;13.30;;;10.40;;
9720;SDS011;4899;42.644;23.366;2023-02-01T20:38:52;14.63;;;9.33;;
9720;SDS011;4899;42.644;23.366;2023-02-01T20:41:18;17.53;;;10.20;;
9720;SDS011;4899;42.644;23.366;2023-02-01T20:43:44;12.97;;;9.00;;
9720;SDS011;4899;42.644;23.366;2023-02-01T20:46:10;13.27;;;9.23;;
9720;SDS011;4899;42.644;23.366;2023-02-01T20:48:36;13.23;;;9.40;;
9720;SDS011;4899;42.644;23.366;2023-02-01T20:51:02;10.70;;;8.87;;
9720;SDS011;4899;42.644;23.366;2023-02-01T20:53:27;13.43;;;9.27;;
9720;SDS011;4899;42.644;23.366;2023-02-01T20:55:53;13.93;;;9.90;;
9720;SDS011;4899;42.644;23.366;2023-02-01T20:58:21;11.77;;;8.57;;
9720;SDS011;4899;42.644;23.366;2023-02-01T21:00:46;12.80;;;8.73;;
9720;SDS011;4899;42.644;23.366;2023-02-01T21:03:12;10.90;;;8.60;;
9720;SDS011;4899;42.644;23.366;2023-02-01T21:05:39;9.70;;;7.70;;
9720;SDS011;4899;42.644;23.366;2023-02-01T21:08:10;14.40;;;8.63;;
9720;SDS011;4899;42.644;23.366;2023-02-01T21:10:36;11.77;;;8.00;;
9720;SDS011;4899;42.644;23.366;2023-02-01T21:13:03;12.90;;;8.03;;
9720;SDS011;4899;42.644;23.366;2023-02-01T21:15:30;12.97;;;8.03;;
9720;SDS011;4899;42.644;23.366;2023-02-01T21:18:02;11.90;;;8.30;;
9720;SDS011;4899;42.644;23.366;2023-02-01T21:20:29;9.33;;;7.67;;
9720;SDS011;4899;42.644;23.366;2023-02-01T21:22:55;12.10;;;8.10;;
9720;SDS011;4899;42.644;23.366;2023-02-01T21:25:21;11.80;;;7.37;;
9720;SDS011;4899;42.644;23.366;2023-02-01T21:27:46;10.87;;;8.30;;
9720;SDS011;4899;42.644;23.366;2023-02-01T21:30:12;13.17;;;8.33;;
9720;SDS011;4899;42.644;23.366;2023-02-01T21:32:39;18.73;;;15.77;;
9720;SDS011;4899;42.644;23.366;2023-02-01T21:35:04;15.83;;;9.37;;
9720;SDS011;4899;42.644;23.366;2023-02-01T21:37:32;13.40;;;10.33;;
9720;SDS011;4899;42.644;23.366;2023-02-01T21:39:58;13.40;;;11.23;;
9720;SDS011;4899;42.644;23.366;2023-02-01T21:42:23;14.87;;;12.47;;
9720;SDS011;4899;42.644;23.366;2023-02-01T21:44:50;15.00;;;11.23;;
9720;SDS011;4899;42.644;23.366;2023-02-01T21:47:17;14.47;;;10.03;;
9720;SDS011;4899;42.644;23.366;2023-02-01T21:49:44;11.90;;;8.60;;
9720;SDS011;4899;42.644;23.366;2023-02-01T21:52:11;12.77;;;8.57;;
9720;SDS011;4899;42.644;23.366;2023-02-01T21:54:37;10.90;;;8.23;;
9720;SDS011;4899;42.644;23.366;2023-02-01T21:57:03;12.53;;;8.33;;
9720;SDS011;4899;42.644;23.366;2023-02-01T21:59:32;12.60;;;7.97;;
9720;SDS011;4899;42.644;23.366;2023-02-01T22:02:00;13.47;;;8.13;;
9720;SDS011;4899;42.644;23.366;2023-02-01T22:04:25;12.23;;;8.00;;
9720;SDS011;4899;42.644;23.366;2023-02-01T22:06:51;42.47;;;30.70;;
9720;SDS011;4899;42.644;23.366;2023-02-01T22:09:17;22.37;;;13.37;;
9720;SDS011;4899;42.644;23.366;2023-02-01T22:11:45;13.87;;;9.37;;
9720;SDS011;4899;42.644;23.366;2023-02-01T22:14:11;8.43;;;6.90;;
9720;SDS011;4899;42.644;23.366;2023-02-01T22:16:37;10.93;;;8.13;;
9720;SDS011;4899;42.644;23.366;2023-02-01T22:19:02;18.63;;;15.90;;
9720;SDS011;4899;42.644;23.366;2023-02-01T22:21:28;15.67;;;12.57;;
9720;SDS011;4899;42.644;23.366;2023-02-01T22:23:54;16.90;;;11.97;;
9720;SDS011;4899;42.644;23.366;2023-02-01T22:26:23;18.00;;;11.43;;
9720;SDS011;4899;42.644;23.366;2023-02-01T22:28:49;11.57;;;8.83;;
9720;SDS011;4899;42.644;23.366;2023-02-01T22:31:14;12.50;;;8.47;;
9720;SDS011;4899;42.644;23.366;2023-02-01T22:33:41;9.97;;;7.77;;
9720;SDS011;4899;42.644;23.366;2023-02-01T22:36:06;15.27;;;11.37;;
9720;SDS011;4899;42.644;23.366;2023-02-01T22:38:33;11.87;;;9.03;;
9720;SDS011;4899;42.644;23.366;2023-02-01T22:41:00;10.63;;;8.43;;
9720;SDS011;4899;42.644;23.366;2023-02-01T22:43:28;14.47;;;8.40;;
9720;SDS011;4899;42.644;23.366;2023-02-01T22:45:57;12.80;;;9.27;;
9720;SDS011;4899;42.644;23.366;2023-02-01T22:48:25;12.90;;;8.80;;
9720;SDS011;4899;42.644;23.366;2023-02-01T22:50:54;12.27;;;9.27;;
9720;SDS011;4899;42.644;23.366;2023-02-01T22:53:23;12.53;;;7.90;;
9720;SDS011;4899;42.644;23.366;2023-02-01T22:55:50;12.43;;;8.37;;
9720;SDS011;4899;42.644;23.366;2023-02-01T22:58:16;13.90;;;8.43;;
9720;SDS011;4899;42.644;23.366;2023-02-01T23:00:42;10.63;;;7.33;;
9720;SDS011;4899;42.644;23.366;2023-02-01T23:03:08;8.63;;;6.47;;
9720;SDS011;4899;42.644;23.366;2023-02-01T23:05:33;6.23;;;5.17;;
9720;SDS011;4899;42.644;23.366;2023-02-01T23:07:58;5.93;;;4.97;;
9720;SDS011;4899;42.644;23.366;2023-02-01T23:10:25;8.23;;;5.33;;
9720;SDS011;4899;42.644;23.366;2023-02-01T23:12:50;8.73;;;5.50;;
9720;SDS011;4899;42.644;23.366;2023-02-01T23:15:16;7.93;;;5.63;;
9720;SDS011;4899;42.644;23.366;2023-02-01T23:17:43;10.40;;;8.03;;
9720;SDS011;4899;42.644;23.366;2023-02-01T23:20:15;10.30;;;7.10;;
9720;SDS011;4899;42.644;23.366;2023-02-01T23:22:42;8.90;;;5.00;;
9720;SDS011;4899;42.644;23.366;2023-02-01T23:25:09;6.67;;;4.93;;
9720;SDS011;4899;42.644;23.366;2023-02-01T23:27:36;6.13;;;5.00;;
9720;SDS011;4899;42.644;23.366;2023-02-01T23:30:02;5.03;;;3.83;;
9720;SDS011;4899;42.644;23.366;2023-02-01T23:32:30;8.67;;;4.20;;
9720;SDS011;4899;42.644;23.366;2023-02-01T23:34:57;9.30;;;4.73;;
9720;SDS011;4899;42.644;23.366;2023-02-01T23:37:23;10.50;;;5.60;;
9720;SDS011;4899;42.644;23.366;2023-02-01T23:39:49;7.57;;;4.37;;
9720;SDS011;4899;42.644;23.366;2023-02-01T23:42:15;4.67;;;3.77;;
9720;SDS011;4899;42.644;23.366;2023-02-01T23:44:41;5.03;;;4.00;;
9720;SDS011;4899;42.644;23.366;2023-02-01T23:47:07;9.50;;;4.17;;
9720;SDS011;4899;42.644;23.366;2023-02-01T23:49:33;9.00;;;4.97;;
9720;SDS011;4899;42.644;23.366;2023-02-01T23:51:59;5.27;;;4.27;;
9720;SDS011;4899;42.644;23.366;2023-02-01T23:54:25;7.13;;;4.13;;
9720;SDS011;4899;42.644;23.366;2023-02-01T23:56:50;4.23;;;3.23;;
9720;SDS011;4899;42.644;23.366;2023-02-01T23:59:19;3.20;;;2.50;;
